Time;durP1;ratioP1;P1;durP2;ratioP2;P2;SDS_P1;SDS_P2;PMS_P1;PMS_P2;Temp;Humidity;BMP_temperature;BMP_pressure;BME280_temperature;BME280_humidity;BME280_pressure;Samples;Min_cycle;Max_cycle;Signal;HPM_P1;HPM_P2
2022/08/28 00:02:10;;;;;;;12.70;6.10;;;;;;;;;;5053910;28;20408;-75
2022/08/28 00:04:36;;;;;;;10.43;6.00;;;;;;;;;;5037352;28;20048;-75
2022/08/28 00:07:03;;;;;;;15.10;6.72;;;;;;;;;;5054170;28;20535;-75
2022/08/28 00:09:29;;;;;;;10.02;5.82;;;;;;;;;;5053781;28;20507;-75
2022/08/28 00:11:55;;;;;;;9.82;5.20;;;;;;;;;;5053903;28;20091;-75
2022/08/28 00:14:22;;;;;;;5.97;4.13;;;;;;;;;;5053459;28;20041;-75
2022/08/28 00:16:49;;;;;;;10.50;5.57;;;;;;;;;;5037025;28;20116;-75
2022/08/28 00:19:16;;;;;;;8.32;4.63;;;;;;;;;;5053504;28;20505;-75
2022/08/28 00:21:42;;;;;;;11.35;5.57;;;;;;;;;;5053559;28;20053;-75
2022/08/28 00:24:08;;;;;;;10.73;5.90;;;;;;;;;;5037380;28;20037;-75
2022/08/28 00:29:19;;;;;;;14.32;6.72;;;;;;;;;;5052895;28;20044;-75
2022/08/28 00:31:45;;;;;;;9.85;6.00;;;;;;;;;;5037020;28;20116;-75
2022/08/28 00:34:12;;;;;;;10.18;6.00;;;;;;;;;;5053299;28;20408;-75
2022/08/28 00:36:40;;;;;;;14.55;6.20;;;;;;;;;;5053394;28;20051;-75
2022/08/28 00:39:06;;;;;;;12.32;6.35;;;;;;;;;;5036753;28;20508;-75
2022/08/28 00:41:34;;;;;;;12.77;5.85;;;;;;;;;;5036449;28;20409;-75
2022/08/28 00:44:12;;;;;;;11.80;6.10;;;;;;;;;;5053228;28;20037;-75
2022/08/28 00:46:38;;;;;;;9.25;5.38;;;;;;;;;;5053338;28;20045;-75
2022/08/28 00:49:05;;;;;;;12.48;5.72;;;;;;;;;;5052977;28;20029;-75
2022/08/28 00:54:17;;;;;;;8.10;5.80;;;;;;;;;;5052905;28;20524;-75
2022/08/28 00:56:45;;;;;;;11.20;6.00;;;;;;;;;;5053460;28;20501;-75
2022/08/28 00:59:14;;;;;;;9.85;5.28;;;;;;;;;;5052730;28;20049;-75
2022/08/28 01:01:41;;;;;;;9.38;5.90;;;;;;;;;;5036332;28;20055;-75
2022/08/28 01:04:07;;;;;;;12.23;5.93;;;;;;;;;;5053046;28;20045;-74
2022/08/28 01:06:34;;;;;;;10.60;6.30;;;;;;;;;;5052331;28;20128;-75
2022/08/28 01:09:01;;;;;;;9.93;6.18;;;;;;;;;;5052198;28;20094;-75
2022/08/28 01:11:28;;;;;;;9.50;5.80;;;;;;;;;;5036021;28;20044;-75
2022/08/28 01:13:55;;;;;;;8.88;4.20;;;;;;;;;;5052619;28;20040;-75
2022/08/28 01:16:22;;;;;;;15.25;6.63;;;;;;;;;;5052179;28;20049;-75
2022/08/28 01:18:49;;;;;;;8.75;5.22;;;;;;;;;;5036280;28;20389;-75
2022/08/28 01:21:24;;;;;;;9.85;5.53;;;;;;;;;;5052171;28;20037;-75
2022/08/28 01:23:56;;;;;;;13.27;6.30;;;;;;;;;;5052421;28;20041;-75
2022/08/28 01:26:24;;;;;;;14.00;5.30;;;;;;;;;;5053758;28;20037;-75
2022/08/28 01:28:51;;;;;;;14.52;6.60;;;;;;;;;;5052135;28;20108;-75
2022/08/28 01:31:17;;;;;;;11.35;6.80;;;;;;;;;;5052069;28;20045;-75
2022/08/28 01:33:44;;;;;;;10.48;6.00;;;;;;;;;;5052375;28;20045;-74
2022/08/28 01:36:11;;;;;;;9.93;6.40;;;;;;;;;;5052477;28;20076;-75
2022/08/28 01:38:37;;;;;;;12.05;6.20;;;;;;;;;;5051858;28;20479;-75
2022/08/28 01:41:04;;;;;;;11.00;6.50;;;;;;;;;;5052252;28;20484;-75
2022/08/28 01:43:30;;;;;;;14.13;6.88;;;;;;;;;;5051924;28;20045;-75
2022/08/28 01:46:01;;;;;;;10.90;6.40;;;;;;;;;;5052240;28;20099;-75
2022/08/28 01:48:28;;;;;;;12.07;6.55;;;;;;;;;;5034843;28;20120;-74
2022/08/28 01:50:55;;;;;;;11.70;5.65;;;;;;;;;;5051754;28;20048;-75
2022/08/28 01:53:23;;;;;;;13.38;6.15;;;;;;;;;;5035242;28;20103;-75
2022/08/28 01:55:49;;;;;;;7.85;5.32;;;;;;;;;;5051801;28;20078;-75
2022/08/28 01:58:15;;;;;;;11.20;6.15;;;;;;;;;;5051872;28;20033;-75
2022/08/28 02:00:42;;;;;;;8.70;5.78;;;;;;;;;;5051018;28;20073;-75
2022/08/28 02:03:08;;;;;;;11.48;5.75;;;;;;;;;;5033957;28;20037;-75
2022/08/28 02:05:34;;;;;;;8.88;5.50;;;;;;;;;;5048651;28;20041;-75
2022/08/28 02:08:02;;;;;;;10.55;5.43;;;;;;;;;;5051374;28;20140;-75
2022/08/28 02:10:29;;;;;;;10.63;6.63;;;;;;;;;;5034684;28;20045;-75
2022/08/28 02:12:56;;;;;;;14.10;5.35;;;;;;;;;;5051900;28;20037;-75
2022/08/28 02:15:22;;;;;;;11.13;5.53;;;;;;;;;;5051423;28;20473;-75
2022/08/28 02:17:48;;;;;;;12.15;6.22;;;;;;;;;;5051562;28;20045;-75
2022/08/28 02:20:14;;;;;;;9.75;5.10;;;;;;;;;;5050339;28;20041;-75
2022/08/28 02:22:40;;;;;;;8.02;5.28;;;;;;;;;;5051595;28;20537;-75
2022/08/28 02:25:08;;;;;;;6.65;4.65;;;;;;;;;;5051327;28;20120;-74
2022/08/28 02:27:34;;;;;;;8.30;4.82;;;;;;;;;;5051011;28;20037;-75
2022/08/28 02:30:00;;;;;;;10.20;5.30;;;;;;;;;;5034426;28;20044;-74
2022/08/28 02:32:26;;;;;;;9.55;5.70;;;;;;;;;;5034391;28;20045;-75
2022/08/28 02:34:53;;;;;;;11.48;5.78;;;;;;;;;;5051123;28;20124;-75
2022/08/28 02:37:20;;;;;;;11.23;5.82;;;;;;;;;;5034555;28;20048;-75
2022/08/28 02:39:47;;;;;;;9.40;5.45;;;;;;;;;;5050941;28;20447;-75
2022/08/28 02:42:14;;;;;;;9.07;5.30;;;;;;;;;;5049931;28;20064;-75
2022/08/28 02:44:41;;;;;;;8.82;4.35;;;;;;;;;;5034449;28;20124;-75
2022/08/28 02:47:08;;;;;;;8.50;4.90;;;;;;;;;;5051137;28;20046;-75
2022/08/28 02:49:34;;;;;;;9.90;5.50;;;;;;;;;;5036430;28;20573;-75
2022/08/28 02:52:00;;;;;;;9.30;5.25;;;;;;;;;;5051024;28;20128;-75
2022/08/28 02:54:26;;;;;;;11.10;5.57;;;;;;;;;;5034551;28;20489;-75
2022/08/28 02:56:53;;;;;;;9.13;5.57;;;;;;;;;;5051459;28;20564;-75
2022/08/28 02:59:19;;;;;;;13.10;6.15;;;;;;;;;;5034267;28;20135;-75
2022/08/28 03:01:45;;;;;;;10.57;6.05;;;;;;;;;;5039321;28;20052;-75
2022/08/28 03:04:11;;;;;;;8.52;5.03;;;;;;;;;;5047969;28;20055;-75
2022/08/28 03:06:37;;;;;;;9.30;4.60;;;;;;;;;;5050530;28;20029;-75
2022/08/28 03:09:04;;;;;;;7.30;4.50;;;;;;;;;;5050576;28;20041;-75
2022/08/28 03:11:30;;;;;;;9.25;5.13;;;;;;;;;;5050544;28;20040;-75
2022/08/28 03:13:56;;;;;;;11.70;5.43;;;;;;;;;;5014886;28;20449;-75
2022/08/28 03:16:24;;;;;;;11.32;5.10;;;;;;;;;;5066890;28;20490;-74
2022/08/28 03:18:50;;;;;;;9.55;5.00;;;;;;;;;;5050655;28;20455;-75
2022/08/28 03:21:16;;;;;;;9.65;5.00;;;;;;;;;;5050363;28;20040;-75
2022/08/28 03:23:42;;;;;;;9.57;5.13;;;;;;;;;;5034199;28;20525;-75
2022/08/28 03:26:10;;;;;;;10.70;5.35;;;;;;;;;;5050511;28;20121;-75
2022/08/28 03:28:38;;;;;;;12.13;5.57;;;;;;;;;;5050472;28;20402;-75
2022/08/28 03:31:04;;;;;;;10.00;5.95;;;;;;;;;;5050824;28;20049;-75
2022/08/28 03:33:31;;;;;;;11.80;5.43;;;;;;;;;;5055340;28;20115;-75
2022/08/28 03:35:58;;;;;;;10.48;5.47;;;;;;;;;;5054640;28;20465;-75
2022/08/28 03:38:24;;;;;;;8.80;5.22;;;;;;;;;;5054499;28;20079;-75
2022/08/28 03:40:50;;;;;;;9.45;5.07;;;;;;;;;;5037298;28;20048;-75
2022/08/28 03:43:22;;;;;;;8.80;5.13;;;;;;;;;;5054355;28;20044;-75
2022/08/28 03:45:59;;;;;;;9.23;5.50;;;;;;;;;;5053971;28;20041;-74
2022/08/28 03:48:26;;;;;;;10.38;5.65;;;;;;;;;;5037889;28;20090;-74
2022/08/28 03:50:53;;;;;;;13.45;5.53;;;;;;;;;;5054722;28;20136;-75
2022/08/28 03:53:23;;;;;;;8.27;4.60;;;;;;;;;;5054167;28;20080;-75
2022/08/28 03:55:49;;;;;;;9.57;5.40;;;;;;;;;;5054132;28;20053;-75
2022/08/28 03:58:15;;;;;;;12.38;6.22;;;;;;;;;;5054213;28;20045;-74
2022/08/28 04:00:42;;;;;;;10.18;5.00;;;;;;;;;;5036318;28;20049;-75
2022/08/28 04:03:11;;;;;;;10.95;4.22;;;;;;;;;;5053590;28;20033;-74
2022/08/28 04:05:37;;;;;;;10.27;5.28;;;;;;;;;;5016669;28;20038;-75
2022/08/28 04:08:04;;;;;;;13.40;5.55;;;;;;;;;;5045704;28;20041;-74
2022/08/28 04:10:31;;;;;;;10.88;5.47;;;;;;;;;;5052352;28;20051;-75
2022/08/28 04:12:59;;;;;;;11.32;4.85;;;;;;;;;;5044352;28;20592;-75
2022/08/28 04:15:25;;;;;;;8.60;5.07;;;;;;;;;;5048033;28;20033;-75
2022/08/28 04:17:51;;;;;;;11.73;5.10;;;;;;;;;;5031312;28;20045;-75
2022/08/28 04:20:19;;;;;;;13.25;5.82;;;;;;;;;;5047700;28;20103;-75
2022/08/28 04:22:46;;;;;;;10.75;5.13;;;;;;;;;;5042840;28;20064;-74
2022/08/28 04:25:12;;;;;;;9.85;5.45;;;;;;;;;;5046772;28;20041;-75
2022/08/28 04:27:39;;;;;;;16.17;5.80;;;;;;;;;;5044934;28;20066;-74
2022/08/28 04:30:05;;;;;;;8.38;5.20;;;;;;;;;;5044734;28;20048;-75
2022/08/28 04:32:33;;;;;;;7.28;3.97;;;;;;;;;;5052525;28;20120;-75
2022/08/28 04:35:00;;;;;;;5.95;4.00;;;;;;;;;;5043339;28;20501;-75
2022/08/28 04:37:26;;;;;;;7.45;4.25;;;;;;;;;;5047356;28;20048;-75
2022/08/28 04:39:52;;;;;;;7.00;4.30;;;;;;;;;;5036179;28;20097;-75
2022/08/28 04:42:18;;;;;;;10.38;4.95;;;;;;;;;;5047198;28;20037;-75
2022/08/28 04:44:44;;;;;;;9.85;4.80;;;;;;;;;;5042779;28;20034;-75
2022/08/28 04:47:10;;;;;;;10.75;4.63;;;;;;;;;;5045047;28;20045;-75
2022/08/28 04:49:37;;;;;;;9.43;4.80;;;;;;;;;;5045577;28;20508;-74
2022/08/28 04:52:03;;;;;;;7.40;4.50;;;;;;;;;;5050567;28;20125;-75
2022/08/28 04:54:31;;;;;;;9.20;4.55;;;;;;;;;;5017002;28;20512;-75
2022/08/28 04:56:57;;;;;;;8.98;5.05;;;;;;;;;;5065376;28;20348;-75
2022/08/28 04:59:23;;;;;;;10.15;4.40;;;;;;;;;;5054332;28;20044;-75
2022/08/28 05:01:50;;;;;;;10.35;4.60;;;;;;;;;;5052269;28;20124;-75
2022/08/28 05:04:18;;;;;;;7.90;4.57;;;;;;;;;;5053036;28;20090;-75
2022/08/28 05:06:44;;;;;;;7.18;4.05;;;;;;;;;;5052353;28;20116;-75
2022/08/28 05:09:11;;;;;;;8.25;4.30;;;;;;;;;;5052631;28;20041;-75
2022/08/28 05:11:37;;;;;;;9.27;4.25;;;;;;;;;;5052642;28;20040;-75
2022/08/28 05:14:05;;;;;;;7.28;4.10;;;;;;;;;;5036367;28;20072;-75
2022/08/28 05:16:31;;;;;;;7.57;3.78;;;;;;;;;;5036183;28;20040;-75
2022/08/28 05:19:01;;;;;;;8.07;3.58;;;;;;;;;;5052580;28;20045;-75
2022/08/28 05:21:27;;;;;;;8.38;3.50;;;;;;;;;;5052443;28;20094;-75
2022/08/28 05:23:55;;;;;;;5.70;3.40;;;;;;;;;;5051944;28;20068;-75
2022/08/28 05:26:22;;;;;;;7.18;3.40;;;;;;;;;;5052716;28;20444;-75
2022/08/28 05:28:48;;;;;;;8.98;3.22;;;;;;;;;;5052215;28;20382;-75
2022/08/28 05:31:16;;;;;;;6.13;3.17;;;;;;;;;;5052314;28;20041;-75
2022/08/28 05:33:48;;;;;;;6.30;3.35;;;;;;;;;;5052133;28;20401;-75
2022/08/28 05:36:16;;;;;;;5.95;3.20;;;;;;;;;;5052601;28;20386;-75
2022/08/28 05:38:43;;;;;;;6.72;3.13;;;;;;;;;;5035034;28;20052;-76
2022/08/28 05:41:09;;;;;;;6.55;3.10;;;;;;;;;;5035513;28;20068;-76
2022/08/28 05:43:35;;;;;;;7.55;3.17;;;;;;;;;;5035774;28;20427;-76
2022/08/28 05:46:04;;;;;;;6.78;3.30;;;;;;;;;;5051736;28;20080;-76
2022/08/28 05:48:31;;;;;;;5.40;2.65;;;;;;;;;;5052257;28;20065;-76
2022/08/28 05:51:07;;;;;;;5.72;2.60;;;;;;;;;;5047592;28;20060;-76
2022/08/28 05:53:34;;;;;;;6.15;2.90;;;;;;;;;;5035110;28;20179;-76
2022/08/28 05:56:02;;;;;;;6.40;2.70;;;;;;;;;;5052020;28;20056;-76
2022/08/28 05:58:28;;;;;;;7.15;2.90;;;;;;;;;;5051680;28;20041;-76
2022/08/28 06:00:56;;;;;;;7.28;2.60;;;;;;;;;;5034871;28;20051;-76
2022/08/28 06:03:22;;;;;;;7.72;2.08;;;;;;;;;;5051968;28;20055;-76
2022/08/28 06:05:55;;;;;;;6.28;2.20;;;;;;;;;;5051349;28;20033;-76
2022/08/28 06:08:21;;;;;;;6.30;2.00;;;;;;;;;;5051563;28;20047;-76
2022/08/28 06:10:49;;;;;;;4.57;1.77;;;;;;;;;;5034659;28;20037;-76
2022/08/28 06:13:15;;;;;;;6.32;2.00;;;;;;;;;;5035487;28;20048;-76
2022/08/28 06:15:45;;;;;;;7.40;1.95;;;;;;;;;;5051901;28;20049;-76
2022/08/28 06:18:11;;;;;;;6.28;1.90;;;;;;;;;;5051603;28;20064;-77
2022/08/28 06:20:40;;;;;;;6.78;2.00;;;;;;;;;;5051548;28;20123;-76
2022/08/28 06:23:06;;;;;;;7.18;1.85;;;;;;;;;;5015468;28;20074;-77
2022/08/28 06:25:36;;;;;;;5.20;2.08;;;;;;;;;;5028553;28;20566;-77
2022/08/28 06:28:03;;;;;;;7.32;2.00;;;;;;;;;;5051109;28;20083;-75
2022/08/28 06:30:29;;;;;;;6.35;2.00;;;;;;;;;;5051610;28;20447;-75
2022/08/28 06:32:55;;;;;;;5.55;2.00;;;;;;;;;;5050747;28;20095;-74
2022/08/28 06:35:21;;;;;;;7.18;1.92;;;;;;;;;;5051619;28;20497;-75
2022/08/28 06:37:48;;;;;;;6.38;1.90;;;;;;;;;;5051039;28;20047;-75
2022/08/28 06:40:14;;;;;;;6.20;1.90;;;;;;;;;;5034765;28;20083;-75
2022/08/28 06:42:41;;;;;;;6.60;1.90;;;;;;;;;;5051532;28;20544;-75
2022/08/28 06:45:07;;;;;;;5.40;1.63;;;;;;;;;;5050897;28;20039;-75
2022/08/28 06:47:33;;;;;;;4.95;1.33;;;;;;;;;;5051711;28;20068;-75
2022/08/28 06:49:59;;;;;;;8.48;1.60;;;;;;;;;;5050865;28;20445;-75
2022/08/28 06:52:25;;;;;;;8.43;2.30;;;;;;;;;;5051684;28;20041;-76
2022/08/28 06:54:51;;;;;;;5.50;1.55;;;;;;;;;;5034355;28;20557;-75
2022/08/28 06:57:17;;;;;;;5.80;1.88;;;;;;;;;;5034762;28;20041;-75
2022/08/28 06:59:43;;;;;;;4.60;1.40;;;;;;;;;;5050918;28;20041;-75
2022/08/28 07:02:09;;;;;;;5.60;1.50;;;;;;;;;;5050349;28;20053;-76
2022/08/28 07:04:36;;;;;;;5.93;1.60;;;;;;;;;;5050871;28;20033;-75
2022/08/28 07:07:03;;;;;;;6.00;1.58;;;;;;;;;;5053783;28;20520;-76
2022/08/28 07:09:29;;;;;;;4.28;1.40;;;;;;;;;;5040769;28;20086;-75
2022/08/28 07:11:55;;;;;;;4.97;1.90;;;;;;;;;;5057078;28;20036;-75
2022/08/28 07:14:22;;;;;;;4.00;1.40;;;;;;;;;;5041126;28;20473;-75
2022/08/28 07:16:48;;;;;;;4.95;1.60;;;;;;;;;;5057424;28;20048;-75
2022/08/28 07:19:14;;;;;;;5.32;1.38;;;;;;;;;;5057196;28;20118;-76
2022/08/28 07:21:42;;;;;;;6.10;1.63;;;;;;;;;;5041017;28;20076;-76
2022/08/28 07:24:09;;;;;;;7.75;1.50;;;;;;;;;;5057458;28;20040;-76
2022/08/28 07:26:35;;;;;;;6.78;1.40;;;;;;;;;;5040893;28;20037;-76
2022/08/28 07:29:02;;;;;;;5.05;1.33;;;;;;;;;;5024097;28;20036;-76
2022/08/28 07:31:29;;;;;;;5.45;1.55;;;;;;;;;;5057614;28;20116;-75
2022/08/28 07:33:55;;;;;;;5.05;1.50;;;;;;;;;;5040640;28;20543;-76
2022/08/28 07:36:23;;;;;;;4.30;1.30;;;;;;;;;;5057243;28;20037;-75
2022/08/28 07:38:49;;;;;;;3.85;1.35;;;;;;;;;;5040951;28;20049;-74
2022/08/28 07:41:17;;;;;;;4.05;1.10;;;;;;;;;;5056725;28;20048;-75
2022/08/28 07:46:28;;;;;;;6.50;1.48;;;;;;;;;;5059792;28;20082;-76
2022/08/28 07:48:56;;;;;;;4.20;1.40;;;;;;;;;;5040760;28;20041;-76
2022/08/28 07:51:22;;;;;;;3.78;1.30;;;;;;;;;;5056883;28;20061;-76
2022/08/28 07:53:49;;;;;;;4.38;1.30;;;;;;;;;;5056931;28;20036;-75
2022/08/28 07:56:16;;;;;;;6.10;1.50;;;;;;;;;;5040191;28;20114;-76
2022/08/28 07:58:42;;;;;;;3.92;1.20;;;;;;;;;;5057335;28;20057;-77
2022/08/28 08:01:12;;;;;;;6.00;1.45;;;;;;;;;;5040611;28;20094;-76
2022/08/28 08:03:38;;;;;;;5.25;1.40;;;;;;;;;;5040936;28;20397;-75
2022/08/28 08:06:07;;;;;;;4.22;1.48;;;;;;;;;;5057517;28;20412;-77
2022/08/28 08:08:33;;;;;;;6.45;1.40;;;;;;;;;;5059462;28;20501;-77
2022/08/28 08:11:19;;;;;;;4.63;1.52;;;;;;;;;;5051546;28;20132;-77
2022/08/28 08:13:46;;;;;;;5.47;1.20;;;;;;;;;;5052623;28;20056;-76
2022/08/28 08:16:20;;;;;;;7.68;1.83;;;;;;;;;;5041219;28;20068;-76
2022/08/28 08:18:47;;;;;;;6.30;1.30;;;;;;;;;;5054818;28;20512;-77
2022/08/28 08:21:14;;;;;;;3.70;1.38;;;;;;;;;;5054212;28;20367;-77
2022/08/28 08:23:41;;;;;;;8.98;1.45;;;;;;;;;;5054471;28;20048;-78
2022/08/28 08:26:09;;;;;;;4.25;1.60;;;;;;;;;;5053482;28;20033;-77
2022/08/28 08:28:36;;;;;;;4.90;1.25;;;;;;;;;;5054434;28;20495;-76
2022/08/28 08:31:07;;;;;;;6.80;1.40;;;;;;;;;;5053941;28;20041;-77
2022/08/28 08:33:34;;;;;;;4.20;1.40;;;;;;;;;;5055630;28;20041;-76
2022/08/28 08:36:00;;;;;;;3.58;1.30;;;;;;;;;;5037119;28;20187;-76
2022/08/28 08:38:30;;;;;;;4.70;1.20;;;;;;;;;;5054009;28;20044;-77
2022/08/28 08:40:58;;;;;;;5.78;1.10;;;;;;;;;;5054065;28;20037;-76
2022/08/28 08:43:25;;;;;;;4.65;1.40;;;;;;;;;;5054028;28;20527;-77
2022/08/28 08:45:51;;;;;;;5.47;1.42;;;;;;;;;;5053415;28;20119;-76
2022/08/28 08:48:23;;;;;;;6.50;1.42;;;;;;;;;;5052839;28;20040;-77
2022/08/28 08:50:50;;;;;;;5.20;1.35;;;;;;;;;;5053125;28;20147;-77
2022/08/28 08:53:26;;;;;;;4.65;1.25;;;;;;;;;;5052806;28;20048;-76
2022/08/28 08:55:54;;;;;;;5.55;1.48;;;;;;;;;;5036467;28;20152;-76
2022/08/28 08:58:35;;;;;;;4.43;1.48;;;;;;;;;;5036140;28;20167;-76
2022/08/28 09:01:07;;;;;;;5.78;1.13;;;;;;;;;;5052912;28;20106;-77
2022/08/28 09:03:52;;;;;;;5.47;1.45;;;;;;;;;;5036489;28;20577;-77
2022/08/28 09:06:28;;;;;;;5.90;1.45;;;;;;;;;;5052535;28;20045;-77
2022/08/28 09:08:57;;;;;;;5.90;1.27;;;;;;;;;;5036111;28;20043;-77
2022/08/28 09:11:30;;;;;;;5.68;1.30;;;;;;;;;;5052844;28;20033;-76
2022/08/28 09:13:59;;;;;;;3.78;1.20;;;;;;;;;;5052447;28;20047;-77
2022/08/28 09:16:31;;;;;;;6.03;1.13;;;;;;;;;;5052314;28;20048;-76
2022/08/28 09:18:58;;;;;;;4.60;1.50;;;;;;;;;;5052539;28;20040;-77
2022/08/28 09:21:25;;;;;;;6.35;1.27;;;;;;;;;;5035571;28;20041;-76
2022/08/28 09:23:54;;;;;;;4.13;1.20;;;;;;;;;;5052951;28;20456;-77
2022/08/28 09:26:24;;;;;;;3.72;1.20;;;;;;;;;;5052444;28;20044;-76
2022/08/28 09:29:23;;;;;;;4.20;1.40;;;;;;;;;;5052310;28;20098;-76
2022/08/28 09:31:49;;;;;;;5.10;1.45;;;;;;;;;;5030564;28;20056;-76
2022/08/28 09:34:22;;;;;;;5.25;1.45;;;;;;;;;;5051997;28;20128;-77
2022/08/28 09:36:52;;;;;;;7.85;1.65;;;;;;;;;;5036348;28;20087;-75
2022/08/28 09:39:32;;;;;;;3.95;1.38;;;;;;;;;;5052041;28;20037;-76
2022/08/28 09:45:04;;;;;;;3.22;1.15;;;;;;;;;;5052239;28;20111;-76
2022/08/28 09:47:47;;;;;;;5.72;1.35;;;;;;;;;;5051805;28;20047;-76
2022/08/28 09:50:19;;;;;;;5.68;1.40;;;;;;;;;;5051743;28;20045;-77
2022/08/28 09:52:46;;;;;;;5.65;1.30;;;;;;;;;;5035925;28;20585;-76
2022/08/28 09:55:21;;;;;;;5.10;1.50;;;;;;;;;;5034920;28;20045;-75
2022/08/28 09:57:47;;;;;;;3.95;1.42;;;;;;;;;;5052123;28;20045;-76
2022/08/28 10:00:13;;;;;;;4.97;1.42;;;;;;;;;;5034745;28;20132;-76
2022/08/28 10:02:44;;;;;;;3.88;1.30;;;;;;;;;;5051944;28;20037;-74
2022/08/28 10:05:15;;;;;;;5.15;1.48;;;;;;;;;;5051610;28;20047;-75
2022/08/28 10:07:45;;;;;;;5.60;1.55;;;;;;;;;;5035356;28;20392;-75
2022/08/28 10:10:19;;;;;;;7.57;1.60;;;;;;;;;;5051412;28;20045;-75
2022/08/28 10:12:45;;;;;;;5.00;1.35;;;;;;;;;;5051974;28;20493;-75
2022/08/28 10:15:11;;;;;;;5.03;1.35;;;;;;;;;;5051359;28;20444;-75
2022/08/28 10:17:50;;;;;;;4.05;1.40;;;;;;;;;;5034842;28;20041;-74
2022/08/28 10:20:38;;;;;;;3.45;1.23;;;;;;;;;;5034833;28;20520;-74
2022/08/28 10:23:11;;;;;;;3.85;1.45;;;;;;;;;;5035079;28;20032;-74
2022/08/28 10:25:50;;;;;;;4.47;1.33;;;;;;;;;;5051142;28;20041;-75
2022/08/28 10:28:35;;;;;;;4.25;1.40;;;;;;;;;;5041162;28;20430;-75
2022/08/28 10:31:08;;;;;;;6.47;1.42;;;;;;;;;;5034614;28;20049;-76
2022/08/28 10:33:34;;;;;;;6.90;1.38;;;;;;;;;;5050969;28;20092;-75
2022/08/28 10:36:08;;;;;;;5.78;1.50;;;;;;;;;;5034729;28;20128;-75
2022/08/28 10:38:50;;;;;;;6.00;1.48;;;;;;;;;;5051279;28;20087;-74
2022/08/28 10:41:21;;;;;;;3.67;1.40;;;;;;;;;;5050095;28;20128;-75
2022/08/28 10:43:49;;;;;;;4.65;1.50;;;;;;;;;;5034663;28;20123;-75
2022/08/28 10:46:15;;;;;;;6.63;1.50;;;;;;;;;;5050818;28;20068;-75
2022/08/28 10:48:45;;;;;;;5.68;1.67;;;;;;;;;;5051409;28;20099;-76
2022/08/28 10:51:30;;;;;;;6.05;1.60;;;;;;;;;;5051144;28;20081;-75
2022/08/28 10:53:59;;;;;;;4.00;1.55;;;;;;;;;;5050990;28;20088;-76
2022/08/28 10:56:28;;;;;;;8.00;1.58;;;;;;;;;;5050721;28;20111;-76
2022/08/28 10:58:57;;;;;;;2.60;1.25;;;;;;;;;;5051291;28;20029;-74
2022/08/28 11:01:29;;;;;;;4.55;1.50;;;;;;;;;;5050395;28;20084;-76
2022/08/28 11:03:56;;;;;;;3.45;1.40;;;;;;;;;;5034649;28;20037;-76
2022/08/28 11:06:44;;;;;;;4.53;1.45;;;;;;;;;;5034425;28;20362;-75
2022/08/28 11:09:24;;;;;;;5.93;1.33;;;;;;;;;;5051633;28;20045;-75
2022/08/28 11:11:55;;;;;;;3.75;1.40;;;;;;;;;;5051754;28;20048;-76
2022/08/28 11:14:27;;;;;;;5.53;1.35;;;;;;;;;;5051459;28;20047;-76
2022/08/28 11:16:55;;;;;;;5.65;1.45;;;;;;;;;;5034372;28;20045;-74
2022/08/28 11:19:54;;;;;;;4.53;1.38;;;;;;;;;;5050435;28;20037;-74
2022/08/28 11:22:23;;;;;;;3.15;1.17;;;;;;;;;;5029043;28;20110;-76
2022/08/28 11:24:54;;;;;;;4.35;1.42;;;;;;;;;;5050798;28;20045;-75
2022/08/28 11:27:25;;;;;;;6.57;1.50;;;;;;;;;;5051078;28;20102;-75
2022/08/28 11:29:57;;;;;;;3.95;1.30;;;;;;;;;;5051086;28;20044;-76
2022/08/28 11:32:34;;;;;;;6.38;1.40;;;;;;;;;;5050726;28;20494;-76
2022/08/28 11:35:03;;;;;;;3.88;1.35;;;;;;;;;;5050508;28;20041;-76
2022/08/28 11:37:43;;;;;;;4.93;1.27;;;;;;;;;;5050830;28;20072;-76
2022/08/28 11:40:18;;;;;;;4.32;1.52;;;;;;;;;;5033866;28;20116;-76
2022/08/28 11:42:47;;;;;;;;;;;;;;;;;;5050585;28;20048;-75
2022/08/28 11:45:32;;;;;;;4.95;1.65;;;;;;;;;;5050671;28;19923;-75
2022/08/28 11:47:58;;;;;;;3.40;1.23;;;;;;;;;;5050909;28;20544;-76
2022/08/28 11:50:26;;;;;;;3.25;1.38;;;;;;;;;;5050534;28;20393;-75
2022/08/28 11:53:10;;;;;;;3.70;1.23;;;;;;;;;;5035478;28;20076;-76
2022/08/28 11:55:42;;;;;;;2.97;1.20;;;;;;;;;;5054663;28;20037;-78
2022/08/28 11:58:18;;;;;;;5.85;1.67;;;;;;;;;;5038296;28;20099;-75
2022/08/28 12:00:53;;;;;;;3.83;1.20;;;;;;;;;;5070935;28;20049;-75
2022/08/28 12:03:40;;;;;;;3.20;1.10;;;;;;;;;;5054925;28;20037;-75
2022/08/28 12:06:07;;;;;;;4.07;1.20;;;;;;;;;;5038966;28;20494;-76
2022/08/28 12:08:46;;;;;;;3.88;1.33;;;;;;;;;;5047716;28;20041;-76
2022/08/28 12:11:31;;;;;;;4.50;1.35;;;;;;;;;;5038521;28;20037;-75
2022/08/28 12:13:57;;;;;;;4.95;1.40;;;;;;;;;;5049864;28;20106;-75
2022/08/28 12:16:23;;;;;;;5.07;1.67;;;;;;;;;;5037235;28;20033;-75
2022/08/28 12:18:49;;;;;;;5.28;1.58;;;;;;;;;;5053912;28;20525;-75
2022/08/28 12:21:17;;;;;;;4.57;1.58;;;;;;;;;;5053857;28;20106;-75
2022/08/28 12:24:00;;;;;;;5.90;1.50;;;;;;;;;;5036968;28;20432;-75
2022/08/28 12:26:27;;;;;;;4.50;1.70;;;;;;;;;;5053378;28;20033;-75
2022/08/28 12:28:59;;;;;;;5.72;1.65;;;;;;;;;;5053619;28;20090;-75
2022/08/28 12:34:23;;;;;;;5.28;1.50;;;;;;;;;;5053385;28;20049;-76
2022/08/28 12:36:59;;;;;;;3.33;1.55;;;;;;;;;;5036831;28;20044;-75
2022/08/28 12:39:26;;;;;;;5.90;1.45;;;;;;;;;;5053597;28;20095;-75
2022/08/28 12:41:52;;;;;;;6.50;1.50;;;;;;;;;;5053540;28;20118;-75
2022/08/28 12:44:23;;;;;;;5.07;1.60;;;;;;;;;;5053690;28;20040;-75
2022/08/28 12:46:49;;;;;;;3.60;1.40;;;;;;;;;;5052881;28;20132;-75
2022/08/28 12:49:26;;;;;;;4.55;1.30;;;;;;;;;;5053134;28;20060;-75
2022/08/28 12:52:05;;;;;;;4.15;1.27;;;;;;;;;;5052840;28;20087;-75
2022/08/28 12:54:31;;;;;;;5.13;1.23;;;;;;;;;;5052687;28;20040;-76
2022/08/28 12:56:57;;;;;;;6.20;1.40;;;;;;;;;;5052989;28;20050;-75
2022/08/28 12:59:39;;;;;;;4.63;1.55;;;;;;;;;;5052992;28;20100;-75
2022/08/28 13:02:34;;;;;;;2.90;1.15;;;;;;;;;;5052735;28;20493;-75
2022/08/28 13:05:02;;;;;;;3.35;1.27;;;;;;;;;;5051102;28;20057;-73
2022/08/28 13:07:31;;;;;;;5.15;1.35;;;;;;;;;;5052891;28;20048;-75
2022/08/28 13:09:59;;;;;;;3.15;1.30;;;;;;;;;;5036576;28;20068;-75
2022/08/28 13:12:32;;;;;;;5.70;1.67;;;;;;;;;;5052941;28;20505;-75
2022/08/28 13:14:59;;;;;;;2.30;1.10;;;;;;;;;;5052925;28;20041;-75
2022/08/28 13:17:43;;;;;;;2.33;0.85;;;;;;;;;;5052804;28;20094;-75
2022/08/28 13:20:10;;;;;;;5.10;1.13;;;;;;;;;;5052868;28;20048;-75
2022/08/28 13:22:40;;;;;;;4.03;1.25;;;;;;;;;;5035832;28;20041;-75
2022/08/28 13:25:06;;;;;;;3.28;1.10;;;;;;;;;;5053317;28;20033;-75
2022/08/28 13:27:33;;;;;;;3.65;1.00;;;;;;;;;;5035754;28;20040;-75
2022/08/28 13:30:19;;;;;;;3.55;1.15;;;;;;;;;;5052415;28;20045;-75
2022/08/28 13:32:55;;;;;;;3.85;1.10;;;;;;;;;;5052043;28;20122;-75
2022/08/28 13:35:21;;;;;;;4.05;1.20;;;;;;;;;;5035763;28;20053;-75
2022/08/28 13:37:49;;;;;;;2.97;0.95;;;;;;;;;;5052222;28;20512;-76
2022/08/28 13:40:17;;;;;;;4.35;1.05;;;;;;;;;;5052338;28;20036;-76
2022/08/28 13:42:44;;;;;;;3.03;1.10;;;;;;;;;;5052498;28;20048;-76
2022/08/28 13:45:11;;;;;;;3.92;1.15;;;;;;;;;;5052413;28;20124;-76
2022/08/28 13:47:37;;;;;;;5.28;1.40;;;;;;;;;;5034980;28;20056;-75
2022/08/28 13:50:04;;;;;;;2.70;1.00;;;;;;;;;;5052897;28;20091;-76
2022/08/28 13:52:31;;;;;;;3.97;1.38;;;;;;;;;;5052199;28;20051;-76
2022/08/28 13:54:57;;;;;;;3.45;1.13;;;;;;;;;;5051740;28;20041;-75
2022/08/28 13:57:23;;;;;;;4.65;1.20;;;;;;;;;;5051816;28;20037;-75
2022/08/28 13:59:49;;;;;;;2.85;1.00;;;;;;;;;;5051884;28;20509;-75
2022/08/28 14:05:00;;;;;;;3.53;1.10;;;;;;;;;;5052455;28;20051;-76
2022/08/28 14:07:28;;;;;;;3.80;1.10;;;;;;;;;;5051923;28;20039;-75
2022/08/28 14:09:54;;;;;;;2.88;0.90;;;;;;;;;;5015497;28;20041;-75
2022/08/28 14:12:20;;;;;;;4.07;1.10;;;;;;;;;;5051594;28;20049;-76
2022/08/28 14:14:47;;;;;;;7.15;1.13;;;;;;;;;;5051626;28;20520;-75
2022/08/28 14:17:13;;;;;;;5.47;1.17;;;;;;;;;;5050492;28;20083;-75
2022/08/28 14:19:39;;;;;;;2.83;0.98;;;;;;;;;;5034834;28;20044;-75
2022/08/28 14:22:06;;;;;;;6.95;1.38;;;;;;;;;;5034940;28;20062;-75
2022/08/28 14:24:32;;;;;;;4.45;1.05;;;;;;;;;;5051468;28;20099;-75
2022/08/28 14:26:58;;;;;;;3.55;1.17;;;;;;;;;;5050927;28;20123;-76
2022/08/28 14:29:24;;;;;;;3.88;1.50;;;;;;;;;;5051287;28;20033;-75
2022/08/28 14:31:51;;;;;;;3.10;0.90;;;;;;;;;;5051260;28;20049;-75
2022/08/28 14:34:19;;;;;;;4.53;1.20;;;;;;;;;;5052373;28;20041;-76
2022/08/28 14:36:53;;;;;;;3.63;1.27;;;;;;;;;;5051207;28;20509;-76
2022/08/28 14:39:20;;;;;;;3.50;1.02;;;;;;;;;;5051226;28;20037;-76
2022/08/28 14:41:48;;;;;;;5.43;1.23;;;;;;;;;;5051025;28;20044;-75
2022/08/28 14:44:15;;;;;;;4.47;1.25;;;;;;;;;;5035235;28;20069;-76
2022/08/28 14:46:43;;;;;;;4.32;1.52;;;;;;;;;;5050690;28;20044;-75
2022/08/28 14:49:10;;;;;;;4.00;1.02;;;;;;;;;;5051481;28;20041;-75
2022/08/28 14:51:37;;;;;;;4.07;1.08;;;;;;;;;;5050826;28;20137;-75
2022/08/28 14:54:04;;;;;;;2.67;1.15;;;;;;;;;;5050911;28;20425;-75
2022/08/28 14:56:31;;;;;;;3.42;1.00;;;;;;;;;;5051092;28;20048;-75
2022/08/28 14:58:57;;;;;;;7.38;1.45;;;;;;;;;;5050969;28;20067;-75
2022/08/28 15:01:25;;;;;;;3.78;1.23;;;;;;;;;;5034396;28;20045;-75
2022/08/28 15:03:51;;;;;;;3.15;1.15;;;;;;;;;;5034107;28;20048;-75
2022/08/28 15:06:18;;;;;;;3.65;1.25;;;;;;;;;;5050909;28;20075;-75
2022/08/28 15:08:44;;;;;;;3.92;1.30;;;;;;;;;;5050362;28;20040;-75